SKW4768 KOKC-KDEN
Flight info
| Callsign | SKW4768 |
|---|---|
| Flight time | 1h 9m |
| Altitude | 34000 |
| Route | STPHN3 ZEEWE KK36A HALEN NIIXX4 |
| Aircraft | E75L/M-SDE3GILORVW/S |
Departure
| Time | 2026-04-12 01:05 |
|---|---|
| Airport | OKC Will Rogers World Airport (KOKC) |
Arrival
| Time | 2026-04-12 02:15 |
|---|---|
| Airport | Denver International Airport (KDEN) |
| Time | Latitude | Longitude | Altitude | Speed | Heading |
|---|---|---|---|---|---|
| 2026-04-12 00:52 | 35.39563 | -97.59859 | 1295 ft | 0 kts | 180° |
| 2026-04-12 00:57 | 35.39574 | -97.59859 | 1295 ft | 4 kts | 180° |
| 2026-04-12 00:58 | 35.39601 | -97.59859 | 1295 ft | 4 kts | 180° |
| 2026-04-12 00:58 | 35.39626 | -97.59859 | 1295 ft | 2 kts | 180° |
| 2026-04-12 00:58 | 35.39627 | -97.59859 | 1295 ft | 0 kts | 180° |
| 2026-04-12 01:00 | 35.39619 | -97.59860 | 1295 ft | 2 kts | 193° |
| 2026-04-12 01:00 | 35.39616 | -97.59864 | 1295 ft | 0 kts | 240° |
| 2026-04-12 01:00 | 35.39615 | -97.59873 | 1295 ft | 2 kts | 271° |
| 2026-04-12 01:01 | 35.39621 | -97.59930 | 1295 ft | 11 kts | 280° |
| 2026-04-12 01:01 | 35.39627 | -97.60026 | 1294 ft | 12 kts | 244° |
| 2026-04-12 01:01 | 35.39581 | -97.60134 | 1290 ft | 17 kts | 243° |
| 2026-04-12 01:01 | 35.39562 | -97.60260 | 1288 ft | 14 kts | 308° |
| 2026-04-12 01:02 | 35.39635 | -97.60353 | 1287 ft | 17 kts | 319° |
| 2026-04-12 01:02 | 35.39752 | -97.60401 | 1286 ft | 19 kts | 358° |
| 2026-04-12 01:02 | 35.39888 | -97.60404 | 1287 ft | 20 kts | 359° |
| 2026-04-12 01:02 | 35.40028 | -97.60403 | 1290 ft | 20 kts | 1° |
| 2026-04-12 01:03 | 35.40169 | -97.60400 | 1293 ft | 20 kts | 359° |
| 2026-04-12 01:03 | 35.40312 | -97.60402 | 1295 ft | 21 kts | 359° |
| 2026-04-12 01:03 | 35.40453 | -97.60402 | 1295 ft | 17 kts | 0° |
| 2026-04-12 01:03 | 35.40562 | -97.60424 | 1295 ft | 15 kts | 314° |
| 2026-04-12 01:04 | 35.40579 | -97.60538 | 1296 ft | 9 kts | 265° |
| 2026-04-12 01:04 | 35.40537 | -97.60574 | 1295 ft | 9 kts | 174° |
| 2026-04-12 01:04 | 35.40403 | -97.60572 | 1293 ft | 44 kts | 179° |
| 2026-04-12 01:04 | 35.39824 | -97.60572 | 1288 ft | 121 kts | 178° |
| 2026-04-12 01:05 | 35.38805 | -97.60568 | 1638 ft | 159 kts | 176° |
| 2026-04-12 01:05 | 35.37641 | -97.60718 | 2462 ft | 178 kts | 193° |
| 2026-04-12 01:05 | 35.36463 | -97.61353 | 3369 ft | 190 kts | 201° |
| 2026-04-12 01:05 | 35.35214 | -97.61954 | 4445 ft | 198 kts | 197° |
| 2026-04-12 01:06 | 35.33823 | -97.62556 | 5122 ft | 226 kts | 200° |
| 2026-04-12 01:06 | 35.32450 | -97.63679 | 5892 ft | 250 kts | 224° |
| 2026-04-12 01:06 | 35.31529 | -97.65528 | 7008 ft | 262 kts | 246° |
| 2026-04-12 01:06 | 35.31248 | -97.67760 | 8090 ft | 273 kts | 268° |
| 2026-04-12 01:07 | 35.31648 | -97.70077 | 9150 ft | 282 kts | 282° |
| 2026-04-12 01:07 | 35.32304 | -97.72356 | 10199 ft | 287 kts | 285° |
| 2026-04-12 01:07 | 35.33005 | -97.74736 | 10775 ft | 307 kts | 285° |
| 2026-04-12 01:08 | 35.34624 | -97.79843 | 12182 ft | 335 kts | 288° |
| 2026-04-12 01:08 | 35.35521 | -97.82505 | 13131 ft | 341 kts | 289° |
| 2026-04-12 01:08 | 35.36448 | -97.85198 | 14152 ft | 345 kts | 289° |
| 2026-04-12 01:08 | 35.37395 | -97.87923 | 15123 ft | 350 kts | 289° |
| 2026-04-12 01:09 | 35.38362 | -97.90681 | 16087 ft | 355 kts | 289° |
| 2026-04-12 01:09 | 35.39351 | -97.93481 | 16987 ft | 361 kts | 289° |
| 2026-04-12 01:09 | 35.40380 | -97.96310 | 17841 ft | 366 kts | 290° |
| 2026-04-12 01:09 | 35.41452 | -97.99170 | 18599 ft | 373 kts | 291° |
| 2026-04-12 01:10 | 35.42578 | -98.02051 | 19338 ft | 376 kts | 291° |
| 2026-04-12 01:10 | 35.43732 | -98.04937 | 20079 ft | 380 kts | 292° |
| 2026-04-12 01:10 | 35.44930 | -98.07848 | 20841 ft | 383 kts | 292° |
| 2026-04-12 01:10 | 35.46160 | -98.10763 | 21565 ft | 387 kts | 293° |
| 2026-04-12 01:11 | 35.47411 | -98.13651 | 22265 ft | 390 kts | 293° |
| 2026-04-12 01:11 | 35.48262 | -98.16764 | 22906 ft | 383 kts | 272° |
| 2026-04-12 01:11 | 35.48337 | -98.20010 | 23585 ft | 382 kts | 267° |
| 2026-04-12 01:11 | 35.48413 | -98.23284 | 24109 ft | 386 kts | 269° |
| 2026-04-12 01:12 | 35.48599 | -98.26578 | 24636 ft | 389 kts | 271° |
| 2026-04-12 01:12 | 35.48842 | -98.29891 | 25168 ft | 391 kts | 272° |
| 2026-04-12 01:12 | 35.49113 | -98.33216 | 25722 ft | 393 kts | 272° |
| 2026-04-12 01:12 | 35.49398 | -98.36558 | 26240 ft | 395 kts | 272° |
| 2026-04-12 01:13 | 35.49690 | -98.39920 | 26746 ft | 398 kts | 272° |
| 2026-04-12 01:13 | 35.49987 | -98.43303 | 27257 ft | 399 kts | 272° |
| 2026-04-12 01:13 | 35.50287 | -98.46700 | 27767 ft | 401 kts | 272° |
| 2026-04-12 01:13 | 35.50587 | -98.50115 | 28247 ft | 403 kts | 272° |
| 2026-04-12 01:14 | 35.50889 | -98.53549 | 28697 ft | 406 kts | 272° |
| 2026-04-12 01:14 | 35.51191 | -98.57002 | 29133 ft | 408 kts | 272° |
| 2026-04-12 01:14 | 35.51495 | -98.60476 | 29561 ft | 410 kts | 272° |
| 2026-04-12 01:14 | 35.51797 | -98.63956 | 29973 ft | 411 kts | 272° |
| 2026-04-12 01:15 | 35.52101 | -98.67454 | 30401 ft | 412 kts | 272° |
| 2026-04-12 01:15 | 35.52403 | -98.70948 | 30807 ft | 411 kts | 272° |
| 2026-04-12 01:15 | 35.52704 | -98.74445 | 31067 ft | 415 kts | 271° |
| 2026-04-12 01:16 | 35.53312 | -98.81588 | 31151 ft | 432 kts | 272° |
| 2026-04-12 01:16 | 35.53628 | -98.85276 | 31358 ft | 435 kts | 272° |
| 2026-04-12 01:16 | 35.53944 | -98.88966 | 31788 ft | 433 kts | 272° |
| 2026-04-12 01:16 | 35.54256 | -98.92622 | 32308 ft | 428 kts | 271° |
| 2026-04-12 01:17 | 35.54564 | -98.96244 | 32814 ft | 424 kts | 271° |
| 2026-04-12 01:17 | 35.54866 | -98.99836 | 33218 ft | 423 kts | 271° |
| 2026-04-12 01:17 | 35.55165 | -99.03419 | 33629 ft | 421 kts | 271° |
| 2026-04-12 01:17 | 35.55462 | -99.06980 | 34037 ft | 419 kts | 271° |
| 2026-04-12 01:18 | 35.55758 | -99.10549 | 34074 ft | 421 kts | 271° |
| 2026-04-12 01:18 | 35.57233 | -99.17531 | 34025 ft | 435 kts | 293° |
| 2026-04-12 01:19 | 35.60452 | -99.23886 | 34081 ft | 439 kts | 296° |
| 2026-04-12 01:19 | 35.63765 | -99.30202 | 33988 ft | 440 kts | 297° |
| 2026-04-12 01:20 | 35.67057 | -99.36478 | 33995 ft | 440 kts | 297° |
| 2026-04-12 01:20 | 35.70369 | -99.42805 | 34004 ft | 440 kts | 296° |
| 2026-04-12 01:21 | 35.73672 | -99.49125 | 33984 ft | 435 kts | 296° |
| 2026-04-12 01:21 | 35.76940 | -99.55391 | 33992 ft | 435 kts | 296° |
| 2026-04-12 01:22 | 35.80204 | -99.61662 | 33987 ft | 435 kts | 296° |
| 2026-04-12 01:22 | 35.83469 | -99.67946 | 33990 ft | 436 kts | 296° |
| 2026-04-12 01:23 | 35.86736 | -99.74244 | 33968 ft | 438 kts | 296° |
| 2026-04-12 01:23 | 35.90016 | -99.80581 | 33973 ft | 438 kts | 296° |
| 2026-04-12 01:24 | 35.93277 | -99.86891 | 33970 ft | 440 kts | 295° |
| 2026-04-12 01:24 | 35.96563 | -99.93259 | 33966 ft | 440 kts | 295° |
| 2026-04-12 01:25 | 35.99926 | -99.99578 | 33964 ft | 446 kts | 302° |
| 2026-04-12 01:25 | 36.04447 | -100.05000 | 33962 ft | 455 kts | 310° |
| 2026-04-12 01:26 | 36.09133 | -100.10265 | 33947 ft | 456 kts | 310° |
| 2026-04-12 01:26 | 36.13831 | -100.15558 | 33949 ft | 457 kts | 309° |
| 2026-04-12 01:27 | 36.18524 | -100.20861 | 33965 ft | 457 kts | 309° |
| 2026-04-12 01:27 | 36.23215 | -100.26169 | 33937 ft | 456 kts | 309° |
| 2026-04-12 01:28 | 36.27899 | -100.31481 | 33949 ft | 457 kts | 309° |
| 2026-04-12 01:28 | 36.32577 | -100.36789 | 33944 ft | 451 kts | 308° |
| 2026-04-12 01:29 | 36.37203 | -100.42055 | 33956 ft | 452 kts | 308° |
| 2026-04-12 01:29 | 36.41797 | -100.47293 | 33963 ft | 452 kts | 308° |
| 2026-04-12 01:30 | 36.46416 | -100.52588 | 33976 ft | 452 kts | 308° |
| 2026-04-12 01:30 | 36.51027 | -100.57895 | 33995 ft | 452 kts | 308° |
| 2026-04-12 01:31 | 36.55669 | -100.63231 | 33970 ft | 453 kts | 308° |
| 2026-04-12 01:31 | 36.60305 | -100.68566 | 33947 ft | 454 kts | 308° |
| 2026-04-12 01:32 | 36.64158 | -100.73005 | 33943 ft | 454 kts | 308° |
| 2026-04-12 01:32 | 36.68794 | -100.78354 | 33944 ft | 454 kts | 308° |
| 2026-04-12 01:33 | 36.73431 | -100.83713 | 33951 ft | 454 kts | 308° |
| 2026-04-12 01:33 | 36.78066 | -100.89080 | 33955 ft | 454 kts | 308° |
| 2026-04-12 01:34 | 36.82699 | -100.94454 | 33962 ft | 455 kts | 308° |
| 2026-04-12 01:34 | 36.87328 | -100.99834 | 33969 ft | 455 kts | 308° |
| 2026-04-12 01:35 | 36.91955 | -101.05220 | 33967 ft | 455 kts | 308° |
| 2026-04-12 01:35 | 36.96580 | -101.10611 | 33972 ft | 454 kts | 308° |
| 2026-04-12 01:36 | 37.01184 | -101.15988 | 33964 ft | 452 kts | 308° |
| 2026-04-12 01:36 | 37.05778 | -101.21365 | 33957 ft | 452 kts | 308° |
| 2026-04-12 01:37 | 37.10349 | -101.26722 | 33963 ft | 452 kts | 308° |
| 2026-04-12 01:37 | 37.14939 | -101.32112 | 33953 ft | 454 kts | 307° |
| 2026-04-12 01:38 | 37.19554 | -101.37542 | 33958 ft | 456 kts | 308° |
| 2026-04-12 01:38 | 37.24177 | -101.42987 | 33964 ft | 455 kts | 308° |
| 2026-04-12 01:39 | 37.28796 | -101.48437 | 33887 ft | 455 kts | 308° |
| 2026-04-12 01:39 | 37.33409 | -101.53889 | 33892 ft | 455 kts | 308° |
| 2026-04-12 01:40 | 37.38019 | -101.59349 | 33899 ft | 455 kts | 308° |
| 2026-04-12 01:40 | 37.42644 | -101.64836 | 33910 ft | 457 kts | 308° |
| 2026-04-12 01:41 | 37.47270 | -101.70336 | 33924 ft | 458 kts | 308° |
| 2026-04-12 01:41 | 37.51901 | -101.75853 | 33935 ft | 458 kts | 308° |
| 2026-04-12 01:42 | 37.56534 | -101.81371 | 33937 ft | 458 kts | 308° |
| 2026-04-12 01:42 | 37.61156 | -101.86895 | 33918 ft | 459 kts | 309° |
| 2026-04-12 01:43 | 37.65789 | -101.92445 | 33906 ft | 459 kts | 308° |
| 2026-04-12 01:43 | 37.70418 | -101.97997 | 33890 ft | 459 kts | 308° |
| 2026-04-12 01:44 | 37.75046 | -102.03560 | 33868 ft | 459 kts | 308° |
| 2026-04-12 01:44 | 37.79679 | -102.09136 | 33849 ft | 461 kts | 308° |
| 2026-04-12 01:45 | 37.84303 | -102.14749 | 33854 ft | 459 kts | 306° |
| 2026-04-12 01:45 | 37.88591 | -102.20620 | 33847 ft | 457 kts | 304° |
| 2026-04-12 01:46 | 37.92910 | -102.26530 | 33849 ft | 457 kts | 305° |
| 2026-04-12 01:46 | 37.97240 | -102.32417 | 33866 ft | 457 kts | 305° |
| 2026-04-12 01:47 | 38.01579 | -102.38317 | 33878 ft | 460 kts | 305° |
| 2026-04-12 01:47 | 38.05974 | -102.44306 | 33912 ft | 467 kts | 304° |
| 2026-04-12 01:48 | 38.10408 | -102.50347 | 33914 ft | 467 kts | 304° |
| 2026-04-12 01:48 | 38.14834 | -102.56390 | 33932 ft | 467 kts | 304° |
| 2026-04-12 01:49 | 38.19261 | -102.62448 | 33925 ft | 467 kts | 304° |
| 2026-04-12 01:49 | 38.23682 | -102.68518 | 33909 ft | 469 kts | 304° |
| 2026-04-12 01:50 | 38.28110 | -102.74605 | 33880 ft | 469 kts | 304° |
| 2026-04-12 01:50 | 38.32548 | -102.80718 | 33863 ft | 471 kts | 305° |
| 2026-04-12 01:51 | 38.39191 | -102.89890 | 33805 ft | 471 kts | 305° |
| 2026-04-12 01:51 | 38.43628 | -102.96029 | 33804 ft | 469 kts | 305° |
| 2026-04-12 01:52 | 38.48051 | -103.02163 | 33807 ft | 469 kts | 305° |
| 2026-04-12 01:52 | 38.52468 | -103.08300 | 33802 ft | 469 kts | 305° |
| 2026-04-12 01:53 | 38.56888 | -103.14453 | 33801 ft | 470 kts | 305° |
| 2026-04-12 01:53 | 38.61305 | -103.20616 | 33793 ft | 470 kts | 304° |
| 2026-04-12 01:54 | 38.65710 | -103.26772 | 33803 ft | 469 kts | 304° |
| 2026-04-12 01:54 | 38.70110 | -103.32935 | 33612 ft | 471 kts | 304° |
| 2026-04-12 01:55 | 38.72320 | -103.36036 | 33279 ft | 469 kts | 304° |
| 2026-04-12 01:55 | 38.74527 | -103.39134 | 32632 ft | 473 kts | 305° |
| 2026-04-12 01:55 | 38.76737 | -103.42238 | 32019 ft | 471 kts | 305° |
| 2026-04-12 01:55 | 38.78941 | -103.45336 | 31362 ft | 469 kts | 305° |
| 2026-04-12 01:56 | 38.81136 | -103.48425 | 30700 ft | 468 kts | 306° |
| 2026-04-12 01:56 | 38.83321 | -103.51512 | 30124 ft | 469 kts | 305° |
| 2026-04-12 01:56 | 38.85529 | -103.54644 | 29428 ft | 473 kts | 306° |
| 2026-04-12 01:56 | 38.87726 | -103.57748 | 28834 ft | 467 kts | 306° |
| 2026-04-12 01:57 | 38.89864 | -103.60774 | 28238 ft | 461 kts | 306° |
| 2026-04-12 01:57 | 38.92005 | -103.63805 | 27626 ft | 455 kts | 306° |
| 2026-04-12 01:57 | 38.94112 | -103.66798 | 27042 ft | 449 kts | 306° |
| 2026-04-12 01:57 | 38.96195 | -103.69756 | 26453 ft | 444 kts | 306° |
| 2026-04-12 01:58 | 38.98256 | -103.72688 | 25874 ft | 439 kts | 306° |
| 2026-04-12 01:58 | 39.00289 | -103.75582 | 25285 ft | 433 kts | 306° |
| 2026-04-12 01:58 | 39.02292 | -103.78436 | 24745 ft | 425 kts | 306° |
| 2026-04-12 01:58 | 39.04262 | -103.81245 | 24163 ft | 420 kts | 306° |
| 2026-04-12 01:59 | 39.06205 | -103.84019 | 23626 ft | 415 kts | 307° |
| 2026-04-12 01:59 | 39.08131 | -103.86773 | 23044 ft | 411 kts | 307° |
| 2026-04-12 01:59 | 39.10039 | -103.89502 | 22539 ft | 407 kts | 307° |
| 2026-04-12 01:59 | 39.11906 | -103.92170 | 21996 ft | 395 kts | 307° |
| 2026-04-12 02:00 | 39.13714 | -103.94760 | 21557 ft | 382 kts | 306° |
| 2026-04-12 02:00 | 39.15457 | -103.97293 | 21117 ft | 374 kts | 306° |
| 2026-04-12 02:00 | 39.17167 | -103.99783 | 20738 ft | 370 kts | 306° |
| 2026-04-12 02:00 | 39.18876 | -104.02279 | 20315 ft | 371 kts | 306° |
| 2026-04-12 02:01 | 39.20566 | -104.04742 | 19915 ft | 371 kts | 307° |
| 2026-04-12 02:01 | 39.22277 | -104.07235 | 19493 ft | 371 kts | 307° |
| 2026-04-12 02:01 | 39.23982 | -104.09719 | 19094 ft | 369 kts | 307° |
| 2026-04-12 02:01 | 39.25670 | -104.12179 | 18676 ft | 363 kts | 307° |
| 2026-04-12 02:02 | 39.27323 | -104.14586 | 18282 ft | 353 kts | 307° |
| 2026-04-12 02:02 | 39.28928 | -104.16926 | 17862 ft | 344 kts | 307° |
| 2026-04-12 02:02 | 39.30246 | -104.19404 | 17448 ft | 327 kts | 288° |
| 2026-04-12 02:02 | 39.30833 | -104.22157 | 17116 ft | 313 kts | 278° |
| 2026-04-12 02:03 | 39.31222 | -104.24863 | 16830 ft | 304 kts | 277° |
| 2026-04-12 02:03 | 39.31614 | -104.27546 | 16405 ft | 302 kts | 278° |
| 2026-04-12 02:03 | 39.32017 | -104.30207 | 15978 ft | 302 kts | 278° |
| 2026-04-12 02:03 | 39.32429 | -104.32863 | 15568 ft | 302 kts | 278° |
| 2026-04-12 02:04 | 39.32846 | -104.35518 | 15170 ft | 301 kts | 278° |
| 2026-04-12 02:04 | 39.33264 | -104.38165 | 14782 ft | 301 kts | 278° |
| 2026-04-12 02:04 | 39.33680 | -104.40807 | 14371 ft | 298 kts | 278° |
| 2026-04-12 02:04 | 39.34093 | -104.43413 | 13990 ft | 294 kts | 279° |
| 2026-04-12 02:05 | 39.34497 | -104.45981 | 13599 ft | 290 kts | 278° |
| 2026-04-12 02:05 | 39.34896 | -104.48525 | 13198 ft | 286 kts | 279° |
| 2026-04-12 02:05 | 39.35280 | -104.50985 | 12865 ft | 280 kts | 279° |
| 2026-04-12 02:05 | 39.35666 | -104.53438 | 12497 ft | 276 kts | 279° |
| 2026-04-12 02:06 | 39.36043 | -104.55859 | 12182 ft | 271 kts | 279° |
| 2026-04-12 02:06 | 39.36442 | -104.58184 | 12038 ft | 260 kts | 287° |
| 2026-04-12 02:06 | 39.37453 | -104.60079 | 11885 ft | 257 kts | 315° |
| 2026-04-12 02:06 | 39.38861 | -104.61418 | 11920 ft | 247 kts | 322° |
| 2026-04-12 02:07 | 39.40287 | -104.62619 | 11925 ft | 243 kts | 322° |
| 2026-04-12 02:07 | 39.41701 | -104.63851 | 11811 ft | 251 kts | 321° |
| 2026-04-12 02:07 | 39.43315 | -104.64705 | 11763 ft | 256 kts | 349° |
| 2026-04-12 02:07 | 39.45102 | -104.64780 | 11820 ft | 260 kts | 357° |
| 2026-04-12 02:08 | 39.46916 | -104.64666 | 11840 ft | 262 kts | 359° |
| 2026-04-12 02:08 | 39.48747 | -104.64572 | 11764 ft | 264 kts | 356° |
| 2026-04-12 02:08 | 39.50590 | -104.64576 | 11541 ft | 266 kts | 355° |
| 2026-04-12 02:08 | 39.52446 | -104.64558 | 11198 ft | 266 kts | 357° |
| 2026-04-12 02:09 | 39.54253 | -104.64514 | 10883 ft | 253 kts | 356° |
| 2026-04-12 02:09 | 39.55978 | -104.64497 | 10535 ft | 243 kts | 356° |
| 2026-04-12 02:09 | 39.57636 | -104.64478 | 10085 ft | 233 kts | 356° |
| 2026-04-12 02:09 | 39.59210 | -104.64460 | 9797 ft | 226 kts | 356° |
| 2026-04-12 02:10 | 39.60754 | -104.64441 | 9511 ft | 218 kts | 356° |
| 2026-04-12 02:10 | 39.62248 | -104.64425 | 9215 ft | 211 kts | 356° |
| 2026-04-12 02:10 | 39.63716 | -104.64406 | 8922 ft | 205 kts | 356° |
| 2026-04-12 02:10 | 39.65131 | -104.64404 | 8657 ft | 203 kts | 356° |
| 2026-04-12 02:11 | 39.66540 | -104.64376 | 8398 ft | 202 kts | 358° |
| 2026-04-12 02:11 | 39.67930 | -104.64353 | 8137 ft | 202 kts | 357° |
| 2026-04-12 02:11 | 39.69330 | -104.64336 | 7872 ft | 201 kts | 357° |
| 2026-04-12 02:11 | 39.70738 | -104.64320 | 7608 ft | 199 kts | 356° |
| 2026-04-12 02:12 | 39.72099 | -104.64303 | 7356 ft | 197 kts | 357° |
| 2026-04-12 02:12 | 39.73470 | -104.64288 | 7283 ft | 196 kts | 357° |
| 2026-04-12 02:12 | 39.74826 | -104.64271 | 7056 ft | 191 kts | 358° |
| 2026-04-12 02:12 | 39.76126 | -104.64257 | 6841 ft | 181 kts | 358° |
| 2026-04-12 02:13 | 39.77341 | -104.64229 | 6573 ft | 168 kts | 358° |
| 2026-04-12 02:13 | 39.78465 | -104.64243 | 6356 ft | 156 kts | 355° |
| 2026-04-12 02:13 | 39.79549 | -104.64232 | 6151 ft | 159 kts | 358° |
| 2026-04-12 02:13 | 39.80666 | -104.64214 | 6014 ft | 162 kts | 358° |
| 2026-04-12 02:14 | 39.81784 | -104.64194 | 5815 ft | 159 kts | 358° |
| 2026-04-12 02:14 | 39.82885 | -104.64183 | 5529 ft | 158 kts | 358° |
| 2026-04-12 02:14 | 39.83970 | -104.64165 | 5367 ft | 147 kts | 358° |
| 2026-04-12 02:14 | 39.84828 | -104.64154 | 5360 ft | 86 kts | 359° |
| 2026-04-12 02:15 | 39.85187 | -104.64211 | 5354 ft | 26 kts | 328° |
| 2026-04-12 02:15 | 39.85276 | -104.64284 | 5355 ft | 10 kts | 329° |
| 2026-04-12 02:15 | 39.85341 | -104.64327 | 5353 ft | 11 kts | 335° |
| 2026-04-12 02:15 | 39.85420 | -104.64358 | 5353 ft | 13 kts | 356° |
| 2026-04-12 02:16 | 39.85516 | -104.64362 | 5352 ft | 15 kts | 1° |
| 2026-04-12 02:16 | 39.85624 | -104.64355 | 5351 ft | 16 kts | 2° |
| 2026-04-12 02:16 | 39.85742 | -104.64354 | 5350 ft | 18 kts | 358° |
| 2026-04-12 02:16 | 39.85859 | -104.64415 | 5349 ft | 19 kts | 329° |
| 2026-04-12 02:17 | 39.85973 | -104.64499 | 5349 ft | 19 kts | 332° |
| 2026-04-12 02:17 | 39.86096 | -104.64587 | 5348 ft | 21 kts | 330° |
| 2026-04-12 02:17 | 39.86229 | -104.64686 | 5345 ft | 22 kts | 332° |
| 2026-04-12 02:17 | 39.86362 | -104.64785 | 5349 ft | 21 kts | 329° |
| 2026-04-12 02:18 | 39.86443 | -104.64844 | 5351 ft | 19 kts | 330° |
| 2026-04-12 02:18 | 39.86491 | -104.64925 | 5355 ft | 6 kts | 260° |
| 2026-04-12 02:18 | 39.86491 | -104.64986 | 5356 ft | 8 kts | 270° |
| 2026-04-12 02:18 | 39.86491 | -104.65079 | 5358 ft | 13 kts | 271° |
| 2026-04-12 02:19 | 39.86492 | -104.65210 | 5360 ft | 16 kts | 270° |
| 2026-04-12 02:19 | 39.86492 | -104.65373 | 5364 ft | 20 kts | 270° |
| 2026-04-12 02:19 | 39.86494 | -104.65566 | 5367 ft | 23 kts | 271° |
| 2026-04-12 02:19 | 39.86498 | -104.65775 | 5373 ft | 22 kts | 271° |
| 2026-04-12 02:20 | 39.86498 | -104.65967 | 5377 ft | 20 kts | 269° |
| 2026-04-12 02:20 | 39.86499 | -104.66137 | 5379 ft | 15 kts | 270° |
| 2026-04-12 02:20 | 39.86454 | -104.66223 | 5379 ft | 13 kts | 192° |
| 2026-04-12 02:20 | 39.86361 | -104.66225 | 5378 ft | 14 kts | 180° |
| 2026-04-12 02:21 | 39.86261 | -104.66227 | 5378 ft | 15 kts | 181° |
| 2026-04-12 02:21 | 39.86155 | -104.66229 | 5380 ft | 15 kts | 181° |
| 2026-04-12 02:21 | 39.86061 | -104.66231 | 5384 ft | 12 kts | 189° |
| 2026-04-12 02:21 | 39.86016 | -104.66307 | 5383 ft | 12 kts | 269° |
| 2026-04-12 02:22 | 39.86016 | -104.66427 | 5377 ft | 13 kts | 270° |
| 2026-04-12 02:22 | 39.86012 | -104.66528 | 5378 ft | 12 kts | 261° |
| 2026-04-12 02:22 | 39.86005 | -104.66605 | 5376 ft | 8 kts | 266° |
| 2026-04-12 02:22 | 39.86007 | -104.66685 | 5378 ft | 9 kts | 271° |
| 2026-04-12 02:23 | 39.86006 | -104.66773 | 5378 ft | 10 kts | 270° |
| 2026-04-12 02:23 | 39.86008 | -104.66870 | 5376 ft | 11 kts | 271° |
| 2026-04-12 02:23 | 39.86009 | -104.66976 | 5375 ft | 12 kts | 271° |
| 2026-04-12 02:23 | 39.86001 | -104.67028 | 5376 ft | 5 kts | 237° |
| 2026-04-12 02:24 | 39.85975 | -104.67040 | 5376 ft | 4 kts | 172° |
| 2026-04-12 02:24 | 39.85941 | -104.67038 | 5376 ft | 5 kts | 181° |
| 2026-04-12 02:24 | 39.85929 | -104.67039 | 5375 ft | 0 kts | 181° |